createdAt,value
2019-05-07T00:01:05.606Z,5.63
2019-05-07T00:03:34.786Z,5.40
2019-05-07T00:06:04.189Z,6.47
2019-05-07T00:08:33.085Z,6.30
2019-05-07T00:11:02.401Z,5.80
2019-05-07T00:13:33.274Z,5.53
2019-05-07T00:16:02.599Z,5.50
2019-05-07T00:18:32.279Z,5.63
2019-05-07T00:21:03.467Z,5.70
2019-05-07T00:23:32.613Z,5.87
2019-05-07T00:26:03.723Z,4.80
2019-05-07T00:28:32.678Z,6.23
2019-05-07T00:31:02.890Z,5.83
2019-05-07T00:33:32.965Z,5.63
2019-05-07T00:36:13.937Z,5.70
2019-05-07T00:38:45.635Z,6.43
2019-05-07T00:41:42.968Z,5.90
2019-05-07T00:44:13.662Z,6.67
2019-05-07T00:46:42.810Z,5.73
2019-05-07T00:49:12.721Z,5.80
2019-05-07T00:51:42.442Z,5.63
2019-05-07T00:54:12.317Z,5.93
2019-05-07T00:56:42.864Z,5.53
2019-05-07T00:59:13.086Z,6.50
2019-05-07T01:01:43.235Z,5.70
2019-05-07T01:04:12.673Z,5.90
2019-05-07T01:06:42.440Z,5.40
2019-05-07T01:09:12.347Z,5.87
2019-05-07T01:11:42.913Z,6.00
2019-05-07T01:14:12.443Z,5.90
2019-05-07T01:16:42.059Z,6.13
2019-05-07T01:19:12.607Z,6.00
2019-05-07T01:21:43.316Z,6.33
2019-05-07T01:24:12.447Z,5.90
2019-05-07T01:26:42.621Z,6.20
2019-05-07T01:29:12.827Z,6.00
2019-05-07T01:31:48.918Z,5.67
2019-05-07T01:34:32.484Z,5.77
2019-05-07T01:37:02.695Z,5.90
2019-05-07T01:39:32.630Z,7.27
2019-05-07T01:42:02.306Z,7.07
2019-05-07T01:44:32.534Z,5.90
2019-05-07T01:47:02.583Z,6.07
2019-05-07T01:49:33.087Z,5.10
2019-05-07T01:52:02.799Z,5.47
2019-05-07T01:54:33.352Z,5.20
2019-05-07T01:57:02.993Z,5.57
2019-05-07T01:59:32.346Z,5.13
2019-05-07T02:02:08.084Z,4.90
2019-05-07T02:04:56.025Z,5.80
2019-05-07T02:07:35.201Z,6.37
2019-05-07T02:10:23.692Z,5.77
2019-05-07T02:12:52.743Z,5.70
2019-05-07T02:15:22.613Z,6.20
2019-05-07T02:17:52.547Z,6.17
2019-05-07T02:20:22.551Z,5.50
2019-05-07T02:22:53.196Z,5.10
2019-05-07T02:25:22.420Z,5.93
2019-05-07T02:27:52.847Z,5.37
2019-05-07T02:30:23.765Z,6.00
2019-05-07T02:32:53.961Z,5.90
2019-05-07T02:35:23.698Z,5.43
2019-05-07T02:38:02.887Z,5.40
2019-05-07T02:40:39.673Z,5.53
2019-05-07T02:43:08.638Z,6.10
2019-05-07T02:45:53.583Z,6.10
2019-05-07T02:48:25.460Z,6.40
2019-05-07T02:51:00.037Z,5.67
2019-05-07T02:53:35.371Z,6.33
2019-05-07T02:56:04.647Z,6.10
2019-05-07T02:58:33.583Z,5.90
2019-05-07T03:01:04.690Z,5.83
2019-05-07T03:03:33.706Z,5.20
2019-05-07T03:06:03.155Z,6.10
2019-05-07T03:08:33.279Z,6.17
2019-05-07T03:11:03.318Z,5.93
2019-05-07T03:13:33.640Z,6.13
2019-05-07T03:16:03.933Z,6.37
2019-05-07T03:18:33.577Z,5.60
2019-05-07T03:21:14.123Z,5.67
2019-05-07T03:23:54.006Z,6.93
2019-05-07T03:26:25.239Z,5.70
2019-05-07T03:28:59.123Z,5.70
2019-05-07T03:31:47.964Z,5.90
2019-05-07T03:34:38.476Z,5.67
2019-05-07T03:37:08.590Z,5.50
2019-05-07T03:39:37.529Z,6.10
2019-05-07T03:42:06.438Z,5.90
2019-05-07T03:45:03.400Z,6.77
2019-05-07T03:47:36.201Z,6.90
2019-05-07T03:50:08.438Z,5.70
2019-05-07T03:52:37.430Z,5.30
2019-05-07T03:55:07.328Z,5.60
2019-05-07T03:57:36.237Z,6.13
2019-05-07T04:00:06.486Z,5.93
2019-05-07T04:02:35.322Z,5.80
2019-05-07T04:05:05.823Z,5.70
2019-05-07T04:07:34.729Z,5.10
2019-05-07T04:10:04.705Z,5.33
2019-05-07T04:12:34.393Z,6.10
2019-05-07T04:15:03.715Z,6.07
2019-05-07T04:17:33.990Z,6.77
2019-05-07T04:20:04.379Z,6.10
2019-05-07T04:22:34.843Z,6.80
2019-05-07T04:25:19.210Z,5.60
2019-05-07T04:27:55.809Z,5.80
2019-05-07T04:30:24.884Z,5.83
2019-05-07T04:32:55.385Z,6.50
2019-05-07T04:35:36.533Z,5.90
2019-05-07T04:38:06.908Z,5.63
2019-05-07T04:40:36.521Z,5.80
2019-05-07T04:43:05.452Z,5.80
2019-05-07T04:45:34.377Z,6.50
2019-05-07T04:48:03.436Z,5.87
2019-05-07T04:50:42.682Z,5.40
2019-05-07T04:53:05.079Z,5.77
2019-05-07T04:55:34.379Z,5.83
2019-05-07T04:58:08.303Z,7.00
2019-05-07T05:00:34.152Z,6.70
2019-05-07T05:03:19.033Z,6.47
2019-05-07T05:05:47.974Z,5.60
2019-05-07T05:08:16.878Z,6.40
2019-05-07T05:10:46.052Z,6.93
2019-05-07T05:13:14.898Z,6.87
2019-05-07T05:15:43.809Z,6.40
2019-05-07T05:18:13.023Z,7.00
2019-05-07T05:21:02.792Z,6.50
2019-05-07T05:23:47.106Z,6.60
2019-05-07T05:26:16.476Z,6.70
2019-05-07T05:28:45.469Z,6.50
2019-05-07T05:31:14.461Z,6.57
2019-05-07T05:33:43.318Z,6.70
2019-05-07T05:36:12.792Z,5.83
2019-05-07T05:38:42.519Z,6.20
2019-05-07T05:41:12.320Z,6.40
2019-05-07T05:43:55.860Z,5.93
2019-05-07T05:46:26.123Z,6.00
2019-05-07T05:48:54.980Z,5.37
2019-05-07T05:51:52.567Z,5.57
2019-05-07T05:54:42.615Z,6.07
2019-05-07T05:57:27.495Z,6.03
2019-05-07T06:00:14.317Z,6.60
2019-05-07T06:03:02.664Z,6.27
2019-05-07T06:05:52.156Z,5.63
2019-05-07T06:08:44.366Z,5.23
2019-05-07T06:11:24.053Z,5.97
2019-05-07T06:14:04.920Z,6.17
2019-05-07T06:16:37.772Z,6.60
2019-05-07T06:19:32.837Z,6.63
2019-05-07T06:22:26.506Z,6.07
2019-05-07T06:25:15.218Z,6.70
2019-05-07T06:27:44.773Z,6.10
2019-05-07T06:30:14.587Z,7.13
2019-05-07T06:32:43.424Z,7.23
2019-05-07T06:35:12.531Z,7.17
2019-05-07T06:37:42.904Z,6.80
2019-05-07T06:40:35.116Z,7.20
2019-05-07T06:43:35.290Z,7.30
2019-05-07T06:46:04.757Z,6.57
2019-05-07T06:48:41.871Z,6.10
2019-05-07T06:51:04.505Z,6.77
2019-05-07T06:53:34.008Z,6.03
2019-05-07T06:56:03.578Z,6.40
2019-05-07T06:58:46.853Z,7.20
2019-05-07T07:01:33.633Z,7.70
2019-05-07T07:04:13.540Z,8.17
2019-05-07T07:07:01.962Z,8.40
2019-05-07T07:09:39.772Z,8.20
2019-05-07T07:12:12.983Z,8.43
2019-05-07T07:14:42.416Z,8.83
2019-05-07T07:17:12.960Z,7.77
2019-05-07T07:19:42.816Z,9.00
2019-05-07T07:22:12.990Z,7.87
2019-05-07T07:24:42.600Z,7.57
2019-05-07T07:27:13.139Z,7.10
2019-05-07T07:29:46.940Z,7.23
2019-05-07T07:32:17.998Z,6.77
2019-05-07T07:34:48.961Z,6.83
2019-05-07T07:37:37.396Z,8.00
2019-05-07T07:40:32.875Z,11.33
2019-05-07T07:43:04.824Z,7.30
2019-05-07T07:45:32.673Z,6.90
2019-05-07T07:48:02.243Z,7.83
2019-05-07T07:50:33.033Z,7.50
2019-05-07T07:53:02.668Z,8.73
2019-05-07T07:55:42.484Z,8.20
2019-05-07T07:58:22.166Z,9.23
2019-05-07T08:01:12.279Z,8.03
2019-05-07T08:03:41.851Z,7.50
2019-05-07T08:06:11.965Z,8.17
2019-05-07T08:08:42.477Z,8.27
2019-05-07T08:11:12.674Z,7.83
2019-05-07T08:13:42.472Z,7.67
2019-05-07T08:16:12.958Z,7.77
2019-05-07T08:18:43.541Z,7.70
2019-05-07T08:21:12.841Z,8.27
2019-05-07T08:23:42.381Z,8.00
2019-05-07T08:26:12.677Z,7.47
2019-05-07T08:28:42.009Z,7.57
2019-05-07T08:31:42.887Z,7.40
2019-05-07T08:34:23.570Z,6.60
2019-05-07T08:36:52.759Z,7.47
2019-05-07T08:39:24.716Z,8.83
2019-05-07T08:41:52.812Z,8.10
2019-05-07T08:44:25.235Z,8.07
2019-05-07T08:47:05.911Z,8.10
2019-05-07T08:49:39.861Z,7.00
2019-05-07T08:52:06.368Z,8.53
2019-05-07T08:54:35.289Z,8.70
2019-05-07T08:57:04.521Z,8.00
2019-05-07T08:59:34.916Z,9.13
2019-05-07T09:02:05.047Z,7.83
2019-05-07T09:04:33.960Z,8.70
2019-05-07T09:07:03.056Z,8.20
2019-05-07T09:09:32.549Z,8.10
2019-05-07T09:12:02.962Z,9.13
2019-05-07T09:14:32.373Z,8.77
2019-05-07T09:17:02.489Z,8.80
2019-05-07T09:19:40.602Z,8.43
2019-05-07T09:22:03.349Z,8.93
2019-05-07T09:24:33.330Z,9.47
2019-05-07T09:27:25.318Z,9.13
2019-05-07T09:30:09.007Z,8.80
2019-05-07T09:32:54.404Z,9.73
2019-05-07T09:35:27.389Z,9.90
2019-05-07T09:37:56.253Z,9.90
2019-05-07T09:40:25.326Z,9.40
2019-05-07T09:42:54.330Z,9.00
2019-05-07T09:45:23.185Z,9.70
2019-05-07T09:47:52.343Z,9.20
2019-05-07T09:50:23.086Z,9.80
2019-05-07T09:52:52.093Z,10.10
2019-05-07T09:55:23.367Z,10.53
2019-05-07T09:57:52.756Z,10.93
2019-05-07T10:00:22.802Z,10.13
2019-05-07T10:02:52.851Z,10.20
2019-05-07T10:05:21.948Z,11.57
2019-05-07T10:07:52.594Z,9.63
2019-05-07T10:10:22.298Z,10.00
2019-05-07T10:13:01.896Z,8.80
2019-05-07T10:15:32.947Z,10.30
2019-05-07T10:18:15.628Z,9.27
2019-05-07T10:20:44.621Z,8.77
2019-05-07T10:23:22.391Z,9.43
2019-05-07T10:25:52.258Z,9.30
2019-05-07T10:28:22.728Z,9.97
2019-05-07T10:30:52.628Z,9.60
2019-05-07T10:33:22.898Z,9.30
2019-05-07T10:35:52.855Z,9.83
2019-05-07T10:38:22.092Z,8.60
2019-05-07T10:40:51.104Z,9.23
2019-05-07T10:43:22.098Z,9.33
2019-05-07T10:46:12.765Z,8.87
2019-05-07T10:48:55.568Z,8.50
2019-05-07T10:51:25.189Z,8.47
2019-05-07T10:53:54.266Z,7.20
2019-05-07T10:56:23.185Z,8.10
2019-05-07T10:58:52.366Z,6.73
2019-05-07T11:01:29.052Z,7.67
2019-05-07T11:03:58.253Z,8.83
2019-05-07T11:06:27.116Z,7.70
2019-05-07T11:08:56.339Z,8.00
2019-05-07T11:11:25.284Z,7.60
2019-05-07T11:13:56.097Z,7.17
2019-05-07T11:16:28.237Z,7.63
2019-05-07T11:18:57.538Z,6.60
2019-05-07T11:21:33.245Z,6.30
2019-05-07T11:24:03.526Z,6.73
2019-05-07T11:26:33.110Z,7.07
2019-05-07T11:29:02.477Z,6.73
2019-05-07T11:31:33.167Z,6.83
2019-05-07T11:34:02.934Z,6.63
2019-05-07T11:36:34.369Z,7.30
2019-05-07T11:39:05.273Z,7.00
2019-05-07T11:41:49.002Z,7.97
2019-05-07T11:44:23.004Z,7.57
2019-05-07T11:47:12.172Z,6.63
2019-05-07T11:49:58.677Z,6.67
2019-05-07T11:52:35.364Z,6.80
2019-05-07T11:55:03.152Z,7.13
2019-05-07T11:57:32.424Z,6.50
2019-05-07T12:00:02.790Z,7.03
2019-05-07T12:02:32.094Z,7.50
2019-05-07T12:05:01.982Z,7.43
2019-05-07T12:07:32.784Z,7.53
2019-05-07T12:10:04.726Z,7.90
2019-05-07T12:12:32.656Z,7.67
2019-05-07T12:15:02.435Z,6.87
2019-05-07T12:17:31.708Z,6.20
2019-05-07T12:20:02.418Z,7.13
2019-05-07T12:22:46.953Z,7.40
2019-05-07T12:25:17.112Z,5.80
2019-05-07T12:27:46.616Z,6.50
2019-05-07T12:30:22.135Z,7.00
2019-05-07T12:32:58.566Z,7.43
2019-05-07T12:35:27.505Z,7.20
2019-05-07T12:37:56.365Z,7.10
2019-05-07T12:40:25.400Z,6.87
2019-05-07T12:42:54.387Z,6.57
2019-05-07T12:45:23.345Z,8.00
2019-05-07T12:47:52.948Z,7.00
2019-05-07T12:50:22.125Z,6.90
2019-05-07T12:52:56.649Z,7.50
2019-05-07T12:55:36.266Z,7.30
2019-05-07T12:58:05.267Z,7.00
2019-05-07T13:00:52.731Z,7.30
2019-05-07T13:03:33.447Z,6.73
2019-05-07T13:06:02.643Z,7.57
2019-05-07T13:08:32.991Z,7.30
2019-05-07T13:11:03.019Z,7.43
2019-05-07T13:13:32.426Z,7.50
2019-05-07T13:16:02.990Z,7.10
2019-05-07T13:18:32.566Z,6.97
2019-05-07T13:21:02.452Z,7.63
2019-05-07T13:23:32.771Z,7.53
2019-05-07T13:26:02.596Z,7.57
2019-05-07T13:28:31.904Z,7.17
2019-05-07T13:31:02.363Z,6.20
2019-05-07T13:33:34.630Z,8.23
2019-05-07T13:36:04.200Z,6.90
2019-05-07T13:38:42.549Z,7.27
2019-05-07T13:41:22.680Z,8.00
2019-05-07T13:44:16.729Z,6.90
2019-05-07T13:46:46.733Z,6.83
2019-05-07T13:49:15.577Z,7.70
2019-05-07T13:51:44.971Z,8.03
2019-05-07T13:54:14.116Z,11.97
2019-05-07T13:56:43.116Z,7.57
2019-05-07T13:59:13.280Z,7.93
2019-05-07T14:01:48.241Z,7.80
2019-05-07T14:04:17.358Z,8.57
2019-05-07T14:06:46.567Z,8.60
2019-05-07T14:09:19.188Z,8.20
2019-05-07T14:11:48.624Z,8.20
2019-05-07T14:14:17.676Z,8.20
2019-05-07T14:16:46.981Z,8.80
2019-05-07T14:19:16.425Z,8.60
2019-05-07T14:21:45.734Z,7.70
2019-05-07T14:24:15.121Z,7.97
2019-05-07T14:26:44.062Z,9.20
2019-05-07T14:29:13.301Z,8.80
2019-05-07T14:31:42.652Z,9.20
2019-05-07T14:34:40.064Z,7.90
2019-05-07T14:37:19.023Z,7.77
2019-05-07T14:39:48.053Z,8.13
2019-05-07T14:42:24.585Z,9.00
2019-05-07T14:44:53.599Z,8.40
2019-05-07T14:47:22.577Z,9.50
2019-05-07T14:49:52.986Z,8.33
2019-05-07T14:52:30.261Z,8.07
2019-05-07T14:54:53.314Z,8.10
2019-05-07T14:57:22.417Z,8.40
2019-05-07T14:59:52.372Z,9.40
2019-05-07T15:02:23.456Z,7.57
2019-05-07T15:04:52.650Z,7.13
2019-05-07T15:07:22.668Z,8.83
2019-05-07T15:09:52.505Z,7.43
2019-05-07T15:12:23.333Z,7.87
2019-05-07T15:14:52.738Z,8.00
2019-05-07T15:17:32.702Z,7.93
2019-05-07T15:20:02.774Z,6.80
2019-05-07T15:22:48.644Z,6.60
2019-05-07T15:25:33.417Z,5.53
2019-05-07T15:28:02.432Z,6.40
2019-05-07T15:30:41.784Z,7.63
2019-05-07T15:33:12.733Z,7.20
2019-05-07T15:35:42.441Z,7.33
2019-05-07T15:38:11.730Z,6.70
2019-05-07T15:40:42.321Z,6.00
2019-05-07T15:43:12.857Z,6.70
2019-05-07T15:45:42.100Z,6.63
2019-05-07T15:48:12.662Z,6.37
2019-05-07T15:50:42.843Z,7.03
2019-05-07T15:53:43.789Z,5.90
2019-05-07T15:56:19.200Z,6.27
2019-05-07T15:58:48.213Z,5.70
2019-05-07T16:01:17.060Z,6.23
2019-05-07T16:03:46.510Z,5.97
2019-05-07T16:06:15.714Z,5.67
2019-05-07T16:08:49.325Z,5.87
2019-05-07T16:11:18.430Z,6.17
2019-05-07T16:14:08.348Z,5.40
2019-05-07T16:16:40.204Z,5.50
2019-05-07T16:19:13.822Z,5.90
2019-05-07T16:21:42.739Z,5.67
2019-05-07T16:24:12.297Z,5.27
2019-05-07T16:26:41.851Z,5.80
2019-05-07T16:29:13.290Z,5.10
2019-05-07T16:31:43.540Z,5.53
2019-05-07T16:34:12.661Z,7.07
2019-05-07T16:36:41.946Z,6.70
2019-05-07T16:39:12.079Z,6.80
2019-05-07T16:41:42.314Z,5.60
2019-05-07T16:44:12.223Z,6.77
2019-05-07T16:46:42.152Z,5.53
2019-05-07T16:49:12.068Z,6.70
2019-05-07T16:51:44.175Z,6.40
2019-05-07T16:54:12.235Z,7.47
2019-05-07T16:57:02.931Z,6.43
2019-05-07T16:59:32.344Z,5.83
2019-05-07T17:02:05.551Z,5.87
2019-05-07T17:04:34.492Z,5.77
2019-05-07T17:07:05.065Z,5.07
2019-05-07T17:09:35.476Z,5.37
2019-05-07T17:12:07.194Z,4.90
2019-05-07T17:14:36.470Z,4.43
2019-05-07T17:17:05.671Z,4.83
2019-05-07T17:19:34.604Z,4.37
2019-05-07T17:22:06.344Z,4.60
2019-05-07T17:24:34.477Z,5.17
2019-05-07T17:27:22.979Z,4.43
2019-05-07T17:29:51.986Z,4.30
2019-05-07T17:32:22.956Z,4.20
2019-05-07T17:34:52.885Z,5.13
2019-05-07T17:37:22.630Z,4.30
2019-05-07T17:39:52.309Z,4.57
2019-05-07T17:42:22.383Z,4.97
2019-05-07T17:44:51.881Z,4.80
2019-05-07T17:47:21.909Z,5.17
2019-05-07T17:49:52.686Z,4.97
2019-05-07T17:52:22.714Z,4.50
2019-05-07T17:54:52.801Z,4.80
2019-05-07T17:57:22.779Z,4.73
2019-05-07T17:59:52.571Z,4.57
2019-05-07T18:02:46.713Z,4.70
2019-05-07T18:05:15.821Z,4.77
2019-05-07T18:07:44.741Z,4.70
2019-05-07T18:10:13.726Z,4.57
2019-05-07T18:12:42.833Z,4.50
2019-05-07T18:15:12.642Z,5.00
2019-05-07T18:18:02.970Z,5.10
2019-05-07T18:20:32.791Z,4.83
2019-05-07T18:23:02.658Z,6.03
2019-05-07T18:25:32.505Z,5.70
2019-05-07T18:28:01.911Z,6.00
2019-05-07T18:30:32.670Z,5.20
2019-05-07T18:33:25.055Z,5.53
2019-05-07T18:35:54.341Z,4.50
2019-05-07T18:38:23.332Z,5.77
2019-05-07T18:40:52.811Z,5.47
2019-05-07T18:43:22.598Z,4.80
2019-05-07T18:45:51.843Z,5.50
2019-05-07T18:48:22.406Z,5.43
2019-05-07T18:50:52.158Z,5.90
2019-05-07T18:53:22.658Z,4.97
2019-05-07T18:55:51.803Z,5.03
2019-05-07T18:58:22.439Z,5.33
2019-05-07T19:00:55.086Z,5.30
2019-05-07T19:03:25.476Z,5.70
2019-05-07T19:05:54.966Z,6.37
2019-05-07T19:08:23.897Z,5.53
2019-05-07T19:10:52.833Z,5.90
2019-05-07T19:13:22.300Z,5.93
2019-05-07T19:15:52.723Z,6.03
2019-05-07T19:18:22.981Z,6.20
2019-05-07T19:20:53.089Z,5.80
2019-05-07T19:23:22.605Z,5.30
2019-05-07T19:25:52.427Z,5.57
2019-05-07T19:28:22.582Z,5.53
2019-05-07T19:30:52.856Z,5.70
2019-05-07T19:33:26.770Z,5.63
2019-05-07T19:35:52.949Z,6.00
2019-05-07T19:38:22.072Z,6.50
2019-05-07T19:40:52.823Z,6.43
2019-05-07T19:43:21.821Z,5.77
2019-05-07T19:45:52.373Z,5.30
2019-05-07T19:48:23.104Z,5.43
2019-05-07T19:50:52.747Z,6.07
2019-05-07T19:53:23.462Z,5.80
2019-05-07T19:56:08.244Z,6.90
2019-05-07T19:58:37.193Z,6.50
2019-05-07T20:01:07.597Z,6.90
2019-05-07T20:03:36.523Z,7.27
2019-05-07T20:06:05.556Z,7.80
2019-05-07T20:08:34.540Z,7.13
2019-05-07T20:11:22.513Z,6.93
2019-05-07T20:13:52.382Z,5.67
2019-05-07T20:16:23.162Z,6.00
2019-05-07T20:18:52.558Z,5.23
2019-05-07T20:21:22.863Z,5.93
2019-05-07T20:23:52.712Z,6.30
2019-05-07T20:26:23.199Z,6.13
2019-05-07T20:28:52.671Z,6.17
2019-05-07T20:31:22.674Z,6.33
2019-05-07T20:33:53.116Z,6.00
2019-05-07T20:36:22.404Z,5.47
2019-05-07T20:38:52.211Z,6.03
2019-05-07T20:41:23.328Z,5.90
2019-05-07T20:43:52.447Z,5.00
2019-05-07T20:46:21.505Z,5.30
2019-05-07T20:48:52.472Z,5.50
2019-05-07T20:51:22.957Z,4.90
2019-05-07T20:54:16.600Z,4.63
2019-05-07T20:56:51.899Z,5.40
2019-05-07T20:59:21.952Z,5.20
2019-05-07T21:01:52.673Z,5.07
2019-05-07T21:04:22.303Z,4.90
2019-05-07T21:06:52.501Z,5.23
2019-05-07T21:09:22.193Z,5.50
2019-05-07T21:11:51.542Z,5.40
2019-05-07T21:14:22.646Z,5.30
2019-05-07T21:16:51.891Z,4.83
2019-05-07T21:19:22.325Z,5.13
2019-05-07T21:21:51.822Z,5.10
2019-05-07T21:24:22.580Z,4.93
2019-05-07T21:26:53.041Z,5.37
2019-05-07T21:29:22.619Z,4.63
2019-05-07T21:31:52.415Z,4.97
2019-05-07T21:34:23.061Z,5.03
2019-05-07T21:36:52.500Z,4.80
2019-05-07T21:39:22.409Z,4.70
2019-05-07T21:41:52.014Z,4.93
2019-05-07T21:44:25.037Z,4.80
2019-05-07T21:46:51.928Z,4.77
2019-05-07T21:49:22.738Z,4.63
2019-05-07T21:51:54.466Z,4.80
2019-05-07T21:54:35.421Z,4.37
2019-05-07T21:57:22.297Z,4.20
2019-05-07T22:00:12.663Z,4.30
2019-05-07T22:02:41.964Z,4.37
2019-05-07T22:05:11.839Z,4.87
2019-05-07T22:07:41.046Z,4.33
2019-05-07T22:10:12.642Z,4.60
2019-05-07T22:12:42.780Z,3.90
2019-05-07T22:15:13.112Z,5.50
2019-05-07T22:17:44.337Z,4.60
2019-05-07T22:20:13.539Z,4.23
2019-05-07T22:22:45.924Z,4.07
2019-05-07T22:25:15.080Z,4.67
2019-05-07T22:27:44.141Z,4.83
2019-05-07T22:30:18.353Z,4.77
2019-05-07T22:32:58.132Z,4.20
2019-05-07T22:35:31.061Z,4.20
2019-05-07T22:38:00.446Z,4.67
2019-05-07T22:40:29.417Z,4.07
2019-05-07T22:42:58.407Z,4.30
2019-05-07T22:45:27.410Z,4.30
2019-05-07T22:47:56.301Z,3.83
2019-05-07T22:50:25.370Z,3.73
2019-05-07T22:52:54.575Z,3.60
2019-05-07T22:55:23.529Z,3.73
2019-05-07T22:58:06.815Z,3.67
2019-05-07T23:00:42.801Z,3.90
2019-05-07T23:03:12.432Z,3.37
2019-05-07T23:05:42.263Z,3.43
2019-05-07T23:08:12.829Z,3.40
2019-05-07T23:10:44.444Z,2.93
2019-05-07T23:13:13.084Z,3.37
2019-05-07T23:15:42.938Z,2.93
2019-05-07T23:18:12.987Z,3.23
2019-05-07T23:20:42.727Z,3.47
2019-05-07T23:23:13.876Z,3.13
2019-05-07T23:25:43.105Z,3.00
2019-05-07T23:28:12.616Z,3.50
2019-05-07T23:30:42.411Z,3.47
2019-05-07T23:33:12.923Z,3.10
2019-05-07T23:35:42.232Z,3.20
2019-05-07T23:38:12.952Z,2.87
2019-05-07T23:41:02.140Z,2.93
2019-05-07T23:43:31.936Z,3.20
2019-05-07T23:46:02.231Z,3.60
2019-05-07T23:48:32.145Z,3.50
2019-05-07T23:51:02.095Z,3.57
2019-05-07T23:53:31.301Z,3.50
2019-05-07T23:56:02.648Z,3.30
2019-05-07T23:58:32.651Z,3.23
